Terminal Aerodrome Forecast
Issued by NWS

Home | Current Version | Previous Version | Text Only | Print | Product List | Glossary On
Versions: 1 2 3 4 5 6 7 8 9 10 11 12 13 14 15
000
FTUS44 KOUN 250520
TAFCSM
TAF
KCSM 250520Z 2506/2606 15006KT P6SM SKC
     FM251400 19014G20KT P6SM SKC
     FM251800 18021G32KT P6SM SCT250
     FM260100 16017G26KT P6SM SCT250=

USA.gov is the U.S. government's official web portal to all federal, state and local government web resources and services.